Weather observations for the past three days for
Ottawa Putnam County Airport
Metric (Imperial)
Date Time (edt) Wind (kph) Vis. (km) Weather Sky Cond. Temperature (ºC) Relative Humidity Wind Chill (°C) Heat Index (°C) Pressure Precipitation (cm)
Air Dwpt 6 hour altimeter (cm) sea level (mb) 1 hr 3 hr 6 hr
Max. Min.
01 21:55 S 11 16.09 Fair CLR 27 25 89% 31 76.23 0.0
01 21:35 S 13 16.09 Fair CLR 27 25 89% 31 76.2 0.0
01 21:15 S 11 16.09 Fair CLR 27 25 89% 31 76.23 0.0
01 20:55 S 13 16.09 Fair CLR 27 25 89% 31 76.2 0.0
01 20:35 S 11 16.09 A Few Clouds FEW110 27 25 89% 31 76.2 0.0
01 20:15 S 9 16.09 Mostly Cloudy BKN110 28 25 84% 33 76.2 0.0
01 19:55 S 13 16.09 Overcast OVC100 29 25 32.7 28.6 79% 35 76.23 0.0
01 19:35 S 9 16.09 Mostly Cloudy BKN110 29 26 84% 36 76.23 0.0
01 19:15 S 9 16.09 Partly Cloudy SCT110 30 26 79% 37 76.23 0.0
01 18:55 S 7 16.09 Overcast OVC110 30 27 84% 39 76.25 0.0
01 18:35 S 9 16.09 Partly Cloudy SCT110 31 26 75% 39 76.25 0.0
01 18:15 S 11 16.09 Fair CLR 32 27 75% 42 76.25 0.0
01 17:55 S 6 16.09 A Few Clouds FEW120 33 26 67% 42 76.25 0.0
01 17:35 N 6 16.09 Partly Cloudy SCT120 32 26 71% 41 76.28 0.0
01 17:15 Calm 16.09 Mostly Cloudy BKN120 31 26 75% 39 76.28 0.0
01 16:55 NW 6 16.09 Partly Cloudy SCT120 31 27 79% 41 76.3 0.0
01 16:35 W 6 16.09 Partly Cloudy SCT120 32 26 71% 41 76.28 0.0
01 16:15 W 9 16.09 Partly Cloudy SCT120 31 26 75% 39 76.3 0.0
01 15:55 W 9 16.09 Partly Cloudy FEW028 SCT120 31 27 79% 41 76.3 0.0
01 15:35 SW 11 16.09 A Few Clouds FEW120 31 26 75% 39 76.3 0.0
01 15:15 SW 11 16.09 Partly Cloudy SCT120 30 26 79% 37 76.3 0.0
01 14:55 SW 13 16.09 Fair CLR 30 26 79% 37 76.3 0.0
01 14:35 SW 19 16.09 Fair CLR 30 25 75% 36 76.28 0.0
01 14:15 S 17 16.09 Fair CLR 30 25 75% 36 76.28 0.0
01 13:55 SW 13 16.09 Fair CLR 29 26 28.6 23.4 84% 36 76.3 0.0
01 13:35 SW 11 16.09 Fair CLR 27 25 89% 31 76.3 0.0
01 13:15 SW 9 16.09 Fair CLR 27 25 89% 31 76.33 0.0
01 12:55 SW 7 16.09 Fair CLR 27 25 89% 31 76.33 0.0
01 12:35 SW 9 16.09 Fair CLR 27 24 84% 30 76.33 0.0
01 12:15 SW 19 16.09 Fair CLR 28 24 79% 32 76.3 0.0
01 11:55 SW 13 16.09 Fair CLR 27 25 89% 31 76.35 0.0
01 11:35 SW 17 16.09 Fair CLR 26 25 94% 28 76.38 0.0
01 11:15 SW 11 16.09 Fair CLR 25 24 94% 26 76.35 0.0
01 10:35 SW 13 16.09 Fair CLR 26 24 89% 28 76.33 0.0
01 10:15 S 13 16.09 Thunderstorm in Vicinity CLR 26 25 94% 28 76.35 0.0
01 09:55 SW 9 16.09 Fair CLR 25 25 100% 25 76.38 0.0 0.3
01 09:35 S 11 16.09 Thunderstorm in Vicinity CLR 24 24 100% 23 76.35 0.0
01 09:15 SW 6 2.82 Thunderstorm Light Rain Fog/Mist SCT003 SCT038 BKN100 23 23 100% 76.38 0.0
01 08:55 SW 11 8.05 Thunderstorm in Vicinity Rain Fog/Mist FEW060 SCT085 BKN110 24 24 100% 23 76.35 0.0 0.28
01 08:35 W 11 12.87 Thunderstorm in Vicinity Rain FEW090 BKN110 24 23 94% 23 76.35 0.0
01 08:15 SW 13 16.09 Mostly Cloudy BKN110 24 23 94% 23 76.3 0.0
01 07:55 SW 15 16.09 Mostly Cloudy BKN110 24 23 24.4 23.1 94% 23 76.3 0.0
01 07:35 SW 13 16.09 Mostly Cloudy BKN110 24 23 94% 23 76.3 0.0
01 07:15 SW 11 16.09 Overcast OVC095 24 23 94% 23 76.28 0.0
01 06:55 SW 11 16.09 Overcast OVC095 24 23 94% 23 76.28 0.0
01 06:35 SW 11 16.09 Mostly Cloudy BKN095 24 23 94% 23 76.28 0.0
01 06:15 SW 11 16.09 Fair CLR 23 23 100% 76.28 0.0
01 05:55 SW 11 16.09 Fair CLR 24 23 94% 23 76.25 0.0
01 05:35 SW 11 16.09 Fair CLR 24 23 94% 23 76.25 0.0
01 05:15 SW 13 16.09 Fair CLR 24 23 94% 23 76.25 0.0
01 04:55 SW 13 16.09 Fair CLR 24 23 94% 23 76.25 0.0
01 04:35 SW 13 16.09 Fair CLR 24 23 94% 23 76.25 0.0
01 04:15 SW 13 16.09 Fair CLR 24 23 94% 23 76.23 0.0
01 03:55 SW 11 16.09 Fair CLR 24 23 94% 23 76.23 0.0
01 03:35 SW 13 16.09 Fair CLR 24 23 94% 23 76.23 0.0
01 03:15 SW 13 16.09 Fair CLR 24 23 94% 23 76.23 0.0
01 02:55 SW 11 16.09 Fair CLR 24 23 94% 23 76.25 0.0
01 02:35 SW 9 16.09 Fair CLR 23 23 100% 76.25 0.0
01 02:15 SW 9 16.09 Fair CLR 24 23 94% 23 76.25 0.0
01 01:55 SW 11 16.09 Fair CLR 24 23 26.6 24.2 94% 23 76.25 0.0
01 01:35 SW 11 16.09 Fair CLR 25 23 89% 26 76.25 0.0
01 01:15 SW 11 16.09 Fair CLR 25 23 89% 26 76.28 0.0
01 00:55 SW 11 16.09 Fair CLR 24 23 94% 23 76.25 0.0
01 00:35 S 11 16.09 Fair CLR 25 23 89% 26 76.23 0.0
01 00:15 S 9 16.09 Fair CLR 25 23 89% 26 76.23 0.0
31 23:55 SW 13 16.09 A Few Clouds FEW100 25 23 89% 26 76.23 0.0
31 23:35 S 13 16.09 A Few Clouds FEW100 FEW120 25 23 89% 26 76.25 0.0
31 23:15 SW 11 16.09 Fair CLR 25 23 89% 26 76.25 0.0
31 22:55 S 11 16.09 Fair CLR 26 24 89% 28 76.25 0.0
31 22:35 SW 11 16.09 Fair CLR 26 23 84% 28 76.28 0.0
31 22:15 S 17 G 33 16.09 Fair CLR 27 24 84% 30 76.23 0.0
31 21:55 S 22 G 31 16.09 Fair CLR 26 24 89% 28 76.2 0.0
31 21:35 S 19 16.09 Fair CLR 26 24 89% 28 76.23 0.0
31 21:15 S 20 16.09 A Few Clouds FEW120 26 24 89% 28 76.23 0.0
31 20:55 S 20 16.09 A Few Clouds FEW120 26 24 89% 28 76.25 0.0
31 20:35 SE 15 16.09 Partly Cloudy SCT120 25 24 94% 26 76.28 0.0
31 20:15 E 7 16.09 Mostly Cloudy BKN120 26 24 89% 28 76.33 0.0
31 19:35 E 7 16.09 A Few Clouds FEW120 26 25 94% 28 76.35 0.0
31 19:15 E 9 16.09 Mostly Cloudy BKN110 27 25 89% 31 76.35 0.0
31 18:55 E 6 16.09 Overcast OVC110 29 25 79% 35 76.35 0.0
31 18:35 SE 4 16.09 Overcast OVC110 29 24 74% 34 76.33 0.0
31 18:15 S 6 16.09 Mostly Cloudy BKN120 30 24 70% 35 76.33 0.0
31 17:55 SW 9 16.09 Fair CLR 29 24 74% 34 76.33 0.0
31 17:35 SW 9 16.09 Fair CLR 28 24 79% 32 76.3 0.0
31 17:15 SW 13 16.09 Fair CLR 28 24 79% 32 76.3 0.0
31 16:55 SW 11 16.09 Fair CLR 29 24 74% 34 76.3 0.0
31 16:35 SW 15 16.09 Fair CLR 28 23 74% 31 76.3 0.0
31 16:15 SW 9 16.09 Fair CLR 28 23 74% 31 76.33 0.0
31 15:55 SW 13 16.09 Fair CLR 28 22 70% 31 76.33 0.0
31 15:35 SW 13 16.09 Fair CLR 28 23 74% 31 76.35 0.0
31 15:16 SW 17 16.09 Fair CLR 27 23 79% 30 76.38 0.0
31 14:55 SW 15 16.09 Fair CLR 27 22 74% 29 76.4 0.0
31 14:35 W 19 16.09 Fair CLR 27 22 74% 29 76.4 0.0
31 14:15 SW 15 G 26 16.09 Fair CLR 29 23 70% 33 76.4 0.0
31 13:55 SW 13 G 30 16.09 Fair CLR 28 23 28.6 22.1 74% 31 76.4 0.0
31 13:35 SW 15 G 26 16.09 Fair CLR 28 23 74% 31 76.4 0.0
31 13:15 SW 17 16.09 Fair CLR 28 23 74% 31 76.43 0.0
31 12:55 SW 15 16.09 Fair CLR 28 24 79% 32 76.45 0.0
31 12:35 SW 17 16.09 Fair CLR 28 24 79% 32 76.45 0.0
31 12:15 SW 13 16.09 Fair CLR 28 23 74% 31 76.45 0.0
31 11:55 SW 17 16.09 Fair CLR 28 23 74% 31 76.45 0.0
31 11:35 SW 15 16.09 Fair CLR 28 22 70% 31 76.45 0.0
31 11:15 SW 15 G 28 16.09 Fair CLR 28 22 70% 31 76.45 0.0
31 10:55 SW 9 16.09 Fair CLR 27 22 74% 29 76.45 0.0
31 10:35 SW 15 16.09 Fair CLR 27 22 74% 29 76.45 0.0
31 10:15 SW 11 16.09 Fair CLR 26 22 79% 28 76.43 0.0
31 09:55 SW 11 16.09 Fair CLR 26 22 79% 28 76.4 0.0
31 09:35 SW 11 16.09 Fair CLR 26 22 79% 28 76.4 0.0
31 09:15 S 11 16.09 A Few Clouds FEW100 24 22 89% 24 76.4 0.0
31 08:55 S 9 16.09 Fair CLR 23 21 89% 76.4 0.0
31 08:35 S 9 16.09 Fair CLR 23 21 89% 76.38 0.0
31 08:15 S 11 16.09 Fair CLR 22 21 94% 76.38 0.0
31 07:55 S 11 16.09 Fair CLR 22 21 22.4 21.1 94% 76.38 0.0
31 07:35 S 9 16.09 Fair CLR 22 21 94% 76.4 0.0
31 07:15 S 9 16.09 A Few Clouds FEW037 FEW045 FEW110 22 21 94% 76.38 0.0
31 06:55 S 6 16.09 Mostly Cloudy SCT042 SCT065 BKN090 22 21 94% 76.38 0.0
31 06:35 S 7 16.09 Mostly Cloudy BKN110 22 21 94% 76.38 0.0
31 06:15 S 7 16.09 Overcast OVC095 22 21 94% 76.38 0.0
31 05:55 S 7 16.09 Overcast FEW031 FEW050 OVC095 22 21 94% 76.35 0.0
31 05:35 S 7 16.09 Overcast SCT050 BKN065 OVC075 22 21 94% 76.35 0.0
31 05:15 S 9 16.09 Overcast FEW044 BKN075 OVC085 21 21 100% 76.35 0.0
31 04:55 SE 6 16.09 Overcast SCT060 BKN075 OVC085 21 21 100% 76.35 0.0
31 04:35 SE 6 16.09 Mostly Cloudy FEW043 BKN065 BKN075 22 21 94% 76.38 0.0
31 04:15 NW 6 16.09 Light Rain SCT065 BKN075 OVC095 22 21 94% 76.4 0.0
31 03:55 SW 2 16.09 Overcast SCT060 BKN075 OVC095 21 21 100% 76.4 0.0
31 03:35 S 4 16.09 Overcast SCT060 BKN075 OVC085 22 21 94% 76.4 0.0
31 03:15 SW 4 16.09 Light Rain BKN075 BKN095 OVC120 22 21 94% 76.4 0.0
31 02:55 SW 6 16.09 Overcast SCT070 BKN095 OVC110 22 21 94% 76.43 0.0
31 02:35 S 9 16.09 Overcast SCT065 BKN075 OVC095 22 21 94% 76.4 0.0
31 02:15 S 9 16.09 Mostly Cloudy FEW060 SCT075 BKN110 22 20 88% 76.4 0.0
31 01:55 S 6 16.09 Mostly Cloudy BKN095 22 21 23.5 21.3 94% 76.43 0.0
31 01:35 S 9 16.09 Mostly Cloudy FEW060 BKN085 22 21 94% 76.4 0.0
31 01:15 S 7 16.09 Overcast SCT065 BKN080 OVC110 22 21 94% 76.43 0.0
31 00:55 S 6 16.09 Mostly Cloudy FEW065 SCT080 BKN110 22 21 94% 76.43 0.0
31 00:35 S 7 16.09 Partly Cloudy FEW085 SCT110 22 21 94% 76.43 0.0
31 00:15 S 7 16.09 Fair CLR 22 21 94% 76.43 0.0
30 23:55 S 9 16.09 Partly Cloudy FEW060 FEW080 SCT120 22 22 100% 76.43 0.0
30 23:35 S 11 16.09 Partly Cloudy SCT060 SCT070 SCT110 22 22 100% 76.43 0.0
30 23:15 S 9 16.09 Fair CLR 22 22 100% 76.43 0.0
30 22:55 SE 9 16.09 A Few Clouds FEW110 22 22 100% 76.43 0.0
30 22:35 SE 11 16.09 Fair CLR 22 22 100% 76.43 0.0
30 22:15 SE 9 16.09 Fair CLR 22 22 100% 76.45 0.0
30 21:55 SE 9 16.09 Fair CLR 22 22 100% 76.43 0.0
30 21:35 SE 9 16.09 Fair CLR 22 22 100% 76.43 0.0
30 21:15 SE 11 16.09 Fair CLR 22 22 100% 76.43 0.0
30 20:55 SE 7 16.09 Fair CLR 22 22 100% 76.4 0.0
30 20:35 SE 7 16.09 Fair CLR 22 22 100% 76.4 0.0
30 20:15 SE 11 16.09 Light Rain CLR 22 22 100% 76.4 0.0
30 19:55 SE 7 16.09 Partly Cloudy SCT110 23 22 27.2 21.9 94% 76.43 0.0
30 19:35 E 4 16.09 Overcast OVC110 24 22 89% 24 76.45 0.0
30 19:15 W 4 16.09 Mostly Cloudy BKN110 25 21 79% 26 76.45 0.0
30 18:55 W 7 16.09 Mostly Cloudy BKN110 25 21 79% 26 76.43 0.0
30 18:35 W 9 16.09 Mostly Cloudy BKN110 26 21 74% 27 76.43 0.0
30 18:15 SW 15 16.09 Mostly Cloudy BKN120 26 21 74% 27 76.38 0.0
30 17:55 SW 13 16.09 Partly Cloudy SCT110 26 22 79% 28 76.38 0.0
30 17:35 SW 13 16.09 Partly Cloudy SCT120 27 21 70% 29 76.38 0.0
30 17:15 SW 13 16.09 Partly Cloudy SCT120 26 22 79% 28 76.38 0.0
30 16:55 S 15 16.09 Partly Cloudy SCT110 26 22 79% 28 76.38 0.0
30 16:35 S 13 16.09 Partly Cloudy SCT110 25 22 83% 26 76.35 0.0
30 16:15 S 15 16.09 Fair CLR 24 22 89% 24 76.35 0.0
30 15:55 SE 17 16.09 A Few Clouds FEW120 24 21 83% 24 76.35 0.0
30 15:35 S 15 16.09 Partly Cloudy SCT120 24 22 89% 24 76.4 0.0
30 15:15 SE 15 16.09 A Few Clouds FEW110 23 21 89% 76.4 0.0
30 14:55 SE 15 16.09 Fair CLR 23 21 89% 76.43 0.0 0.03
30 14:35 SE 9 16.09 Fair CLR 23 21 89% 76.48 0.0
30 14:15 S 15 12.87 Light Rain CLR 22 22 100% 76.45 0.0
30 13:55 S 15 9.66 Light Rain Fog/Mist CLR 22 22 22.7 19.9 100% 76.5 0.0 0.03
30 13:35 S 6 9.66 Light Rain Fog/Mist CLR 22 21 94% 76.61 0.0
30 13:15 S 4 16.09 Light Rain CLR 23 21 89% 76.63 0.0
30 12:55 S 7 16.09 Light Rain CLR 22 21 94% 76.66 0.0
30 12:35 S 7 16.09 Light Rain CLR 22 21 94% 76.66 0.0
30 12:15 Vrbl 2 16.09 Light Rain CLR 23 21 89% 76.63 0.0
30 11:55 NW 4 9.66 Light Rain Fog/Mist FEW110 22 21 94% 76.68 0.0
30 11:35 W 6 16.09 Mostly Cloudy FEW060 SCT090 BKN110 22 21 94% 76.68 0.0
30 11:15 N 11 16.09 Mostly Cloudy FEW060 BKN100 22 20 88% 76.68 0.0
30 10:55 NW 6 16.09 Overcast OVC100 22 21 94% 76.66 0.0
30 10:35 N 4 16.09 Mostly Cloudy FEW060 FEW075 BKN110 22 21 94% 76.58 0.0
30 10:15 E 2 16.09 Light Rain SCT060 SCT085 BKN095 22 20 88% 76.56 0.0
30 09:55 SW 6 16.09 Partly Cloudy FEW065 SCT085 SCT120 22 20 88% 76.53 0.0
30 09:35 SW 9 16.09 Fair CLR 22 20 88% 76.5 0.0
30 09:15 S 9 16.09 Fair CLR 21 20 94% 76.48 0.0
30 08:55 SW 9 16.09 Light Rain FEW060 FEW070 FEW110 21 20 94% 76.48 0.0
30 08:35 S 11 16.09 Fair CLR 21 19 88% 76.45 0.0
30 08:15 S 11 16.09 Fair CLR 21 19 88% 76.45 0.0
30 07:55 S 13 16.09 Fair CLR 20 19 20.2 17.8 94% 76.45 0.0
30 07:35 S 11 16.09 Partly Cloudy FEW065 FEW075 SCT100 20 19 94% 76.48 0.0
30 07:15 S 9 16.09 Overcast FEW065 SCT080 OVC090 20 19 94% 76.5 0.0
30 06:55 S 9 16.09 Overcast OVC090 20 19 94% 76.53 0.0
30 06:35 S 7 16.09 Overcast OVC100 20 19 94% 76.5 0.0
30 06:15 S 7 16.09 Overcast OVC100 20 20 100% 76.5 0.0
30 05:55 S 4 16.09 Overcast OVC100 20 20 100% 76.5 0.0
30 05:35 S 2 16.09 Overcast OVC100 20 20 100% 76.5 0.0
30 05:15 Calm 16.09 Overcast OVC110 20 20 100% 76.5 0.0
30 04:55 SE 2 16.09 Overcast OVC100 20 19 94% 76.48 0.0
30 04:35 S 7 16.09 Overcast OVC110 20 19 94% 76.48 0.0
30 04:15 S 11 16.09 Overcast OVC110 20 19 94% 76.48 0.0
30 03:55 S 11 16.09 Overcast OVC110 20 19 94% 76.48 0.0
30 03:35 S 7 16.09 Overcast OVC110 19 19 100% 76.48 0.0
30 03:15 S 7 16.09 Overcast OVC110 19 19 100% 76.5 0.0
30 02:55 S 7 16.09 Overcast OVC110 19 19 100% 76.5 0.0
30 02:35 SE 6 14.48 Overcast OVC110 18 18 100% 76.53 0.0
30 02:15 SE 6 14.48 Mostly Cloudy BKN120 18 18 100% 76.53 0.0
30 01:55 SE 6 14.48 Partly Cloudy SCT120 18 18 23.8 17.2 100% 76.53 0.0
30 01:35 S 4 8.05 Fog/Mist CLR 18 18 100% 76.53 0.0
30 01:15 SE 6 14.48 Fair CLR 18 18 100% 76.53 0.0
30 00:55 S 4 12.87 Fair CLR 17 17 100% 76.53 0.0
30 00:35 S 4 14.48 Fair CLR 18 18 100% 76.53 0.0
30 00:15 S 2 16.09 Fair CLR 18 18 100% 76.56 0.0
29 23:55 NE 2 16.09 Fair CLR 18 18 100% 76.56 0.0
29 23:35 E 2 16.09 Fair CLR 18 18 100% 76.53 0.0
29 23:15 E 4 16.09 Fair CLR 18 18 100% 76.53 0.0
29 22:55 NE 2 16.09 Fair CLR 18 18 100% 76.53 0.0
29 22:35 SE 4 16.09 Fair CLR 18 18 100% 76.5 0.0
29 22:15 SE 7 16.09 Fair CLR 19 19 100% 76.5 0.0
Date Time (edt) Wind (kph) Vis. (km) Weather Sky Cond. Air Dwpt Max. Min. Relative Humidity Wind Chill (°C) Heat Index (°C) altimeter (cm) sea level (mb) 1 hr 3 hr 6 hr
6 hour
Temperature (ºC) Pressure Precipitation (cm)